Latest Weather Observations for Fawkner Beacon

IDV60801

Issued at 8:05 pm EST Thursday 2 October 2014 (issued every 30 minutes, with the page automatically refreshed every 10 minutes)

About weather observations | Map of weather stations | Latest weather observations for VIC | Other Formats
Station Details ID: 086376 Name: FAWKNER BEACON Lat: -37.91 Lon: 144.93 Height: 17.0 m
Data from the previous 72 hours. | See also: Recent months for locations in Victoria
Date/Time
EST
Temp
°C
App
Temp
°C
Dew
Point
Rel
Hum
%
Delta-T
°C
Wind Press
QNH
hPa
Press
MSL
hPa
Rain
since 9 am
mm
Dir
 
Spd
km/h
Gust
km/h
Spd
kts
Gust
kts
02/08:00pm - - - - - S 26 30 14 16 - - -
02/07:30pm - - - - - S 24 30 13 16 - - -
02/07:00pm - - - - - S 26 32 14 17 - - -
02/06:30pm - - - - - S 28 33 15 18 - - -
02/06:00pm - - - - - S 26 32 14 17 - - -
02/05:30pm - - - - - S 24 30 13 16 - - -
02/05:00pm - - - - - S 24 28 13 15 - - -
02/04:30pm - - - - - SSE 20 26 11 14 - - -
02/04:00pm - - - - - SSE 22 26 12 14 - - -
02/03:30pm - - - - - SE 17 22 9 12 - - -
02/03:00pm - - - - - S 19 22 10 12 - - -
02/02:30pm - - - - - SW 22 26 12 14 - - -
02/02:00pm - - - - - SW 24 28 13 15 - - -
02/01:30pm - - - - - WSW 26 32 14 17 - - -
02/01:00pm - - - - - WSW 28 33 15 18 - - -
02/12:30pm - - - - - SW 28 32 15 17 - - -
02/12:00pm - - - - - SW 28 33 15 18 - - -
02/11:30am - - - - - SW 26 32 14 17 - - -
02/11:00am - - - - - WSW 26 30 14 16 - - -
02/10:30am - - - - - SW 24 28 13 15 - - -
02/10:00am - - - - - SW 24 28 13 15 - - -
02/09:30am - - - - - SW 24 30 13 16 - - -
02/09:00am - - - - - SW 24 28 13 15 - - -
02/08:30am - - - - - W 13 17 7 9 - - -
02/08:00am - - - - - WSW 20 26 11 14 - - -
02/07:30am - - - - - WSW 22 28 12 15 - - -
02/07:00am - - - - - W 19 24 10 13 - - -
02/06:30am - - - - - W 19 26 10 14 - - -
02/06:00am - - - - - WSW 24 32 13 17 - - -
02/05:30am - - - - - W 24 30 13 16 - - -
02/05:00am - - - - - SW 24 33 13 18 - - -
02/04:30am - - - - - WSW 26 32 14 17 - - -
02/04:00am - - - - - W 20 24 11 13 - - -
02/03:30am - - - - - W 17 22 9 12 - - -
02/03:00am - - - - - W 22 24 12 13 - - -
02/02:30am - - - - - WNW 24 28 13 15 - - -
02/02:00am - - - - - W 24 28 13 15 - - -
02/01:30am - - - - - W 24 32 13 17 - - -
02/01:00am - - - - - W 24 28 13 15 - - -
02/12:30am - - - - - W 24 30 13 16 - - -
02/12:00am - - - - - W 24 26 13 14 - - -
 
Date/Time
EST
Temp
°C
App
Temp
°C
Dew
Point
Rel
Hum
%
Delta-T
°C
Wind Press
QNH
hPa
Press
MSL
hPa
Rain
since 9 am
mm
Dir
 
Spd
km/h
Gust
km/h
Spd
kts
Gust
kts
01/11:30pm - - - - - W 22 26 12 14 - - -
01/11:00pm - - - - - W 22 28 12 15 - - -
01/10:30pm - - - - - W 24 28 13 15 - - -
01/10:00pm - - - - - SW 30 39 16 21 - - -
01/09:30pm - - - - - SW 32 41 17 22 - - -
01/09:00pm - - - - - SW 33 39 18 21 - - -
01/08:30pm - - - - - SSW 30 35 16 19 - - -
01/08:00pm - - - - - SW 33 41 18 22 - - -
01/07:30pm - - - - - SW 28 35 15 19 - - -
01/07:00pm - - - - - SSW 19 24 10 13 - - -
01/06:30pm - - - - - S 22 26 12 14 - - -
01/06:00pm - - - - - S 17 22 9 12 - - -
01/05:30pm - - - - - S 17 20 9 11 - - -
01/05:00pm - - - - - S 17 22 9 12 - - -
01/04:30pm - - - - - S 17 22 9 12 - - -
01/04:00pm - - - - - S 24 26 13 14 - - -
01/03:30pm - - - - - S 17 28 9 15 - - -
01/03:00pm - - - - - S 17 22 9 12 - - -
01/02:30pm - - - - - S 22 26 12 14 - - -
01/02:00pm - - - - - SW 22 28 12 15 - - -
01/01:30pm - - - - - SSW 26 32 14 17 - - -
01/01:00pm - - - - - SSW 30 35 16 19 - - -
01/12:30pm - - - - - SSW 24 28 13 15 - - -
01/12:00pm - - - - - SSW 20 26 11 14 - - -
01/11:30am - - - - - SW 28 35 15 19 - - -
01/11:00am - - - - - SW 32 39 17 21 - - -
01/10:30am - - - - - SW 32 39 17 21 - - -
01/10:00am - - - - - SW 32 35 17 19 - - -
01/09:30am - - - - - SW 35 43 19 23 - - -
01/09:00am - - - - - WSW 32 41 17 22 - - -
01/08:30am - - - - - WSW 35 44 19 24 - - -
01/08:00am - - - - - WSW 32 39 17 21 - - -
01/07:30am - - - - - WSW 33 41 18 22 - - -
01/07:00am - - - - - WSW 33 41 18 22 - - -
01/06:30am - - - - - WSW 35 43 19 23 - - -
01/06:00am - - - - - WSW 33 43 18 23 - - -
01/05:30am - - - - - WSW 35 44 19 24 - - -
01/05:00am - - - - - WSW 41 48 22 26 - - -
01/04:30am - - - - - WSW 43 48 23 26 - - -
01/04:00am - - - - - WSW 41 46 22 25 - - -
01/03:30am - - - - - WSW 43 52 23 28 - - -
01/03:00am - - - - - WSW 39 48 21 26 - - -
01/02:30am - - - - - WSW 43 50 23 27 - - -
01/02:00am - - - - - WSW 44 50 24 27 - - -
01/01:30am - - - - - WSW 43 52 23 28 - - -
01/01:00am - - - - - WSW 48 57 26 31 - - -
01/12:37am - - - - - WSW 46 65 25 35 - - -
01/12:30am - - - - - WSW 43 57 23 31 - - -
01/12:00am - - - - - W 41 48 22 26 - - -
 
Date/Time
EST
Temp
°C
App
Temp
°C
Dew
Point
Rel
Hum
%
Delta-T
°C
Wind Press
QNH
hPa
Press
MSL
hPa
Rain
since 9 am
mm
Dir
 
Spd
km/h
Gust
km/h
Spd
kts
Gust
kts
30/11:30pm - - - - - W 46 59 25 32 - - -
30/11:00pm - - - - - WSW 50 63 27 34 - - -
30/10:32pm - - - - - WSW 61 80 33 43 - - -
30/10:30pm - - - - - WSW 65 80 35 43 - - -
30/10:26pm - - - - - WSW 70 80 38 43 - - -
30/10:24pm - - - - - WSW 50 72 27 39 - - -
30/10:00pm - - - - - W 43 52 23 28 - - -
30/09:30pm - - - - - W 43 50 23 27 - - -
30/09:00pm - - - - - W 35 44 19 24 - - -
30/08:30pm - - - - - W 33 44 18 24 - - -
30/08:00pm - - - - - SW 52 78 28 42 - - -
30/07:55pm - - - - - SW 59 78 32 42 - - -
30/07:51pm - - - - - SW 69 78 37 42 - - -
30/07:49pm - - - - - WSW 44 67 24 36 - - -
30/07:30pm - - - - - WSW 43 48 23 26 - - -
30/07:00pm - - - - - WSW 44 57 24 31 - - -
30/06:30pm - - - - - WSW 48 59 26 32 - - -
30/06:14pm - - - - - WSW 63 82 34 44 - - -
30/06:10pm - - - - - W 69 82 37 44 - - -
30/06:00pm - - - - - W 50 70 27 38 - - -
30/05:59pm - - - - - W 50 70 27 38 - - -
30/05:30pm - - - - - W 46 57 25 31 - - -
30/05:00pm - - - - - W 48 61 26 33 - - -
30/04:30pm - - - - - WSW 57 70 31 38 - - -
30/04:27pm - - - - - WSW 57 76 31 41 - - -
30/04:16pm - - - - - WSW 61 70 33 38 - - -
30/04:00pm - - - - - SW 85 104 46 56 - - -
30/03:30pm - - - - - SW 76 95 41 51 - - -
30/03:00pm - - - - - WSW 82 107 44 58 - - -
30/02:48pm - - - - - SW 82 100 44 54 - - -
30/02:46pm - - - - - W 65 102 35 55 - - -
30/02:30pm - - - - - WNW 65 83 35 45 - - -
30/02:25pm - - - - - WNW 65 83 35 45 - - -
30/02:15pm - - - - - WNW 72 83 39 45 - - -
30/02:00pm - - - - - WNW 52 72 28 39 - - -
30/01:57pm - - - - - WNW 54 72 29 39 - - -
30/01:30pm - - - - - NW 44 57 24 31 - - -
30/01:04pm - - - - - NW 50 69 27 37 - - -
30/01:00pm - - - - - NW 52 69 28 37 - - -
30/12:38pm - - - - - NW 43 61 23 33 - - -
30/12:30pm - - - - - NW 44 57 24 31 - - -
30/12:17pm - - - - - NNW 48 67 26 36 - - -
30/12:00pm - - - - - NNW 46 59 25 32 - - -
30/11:30am - - - - - NNW 50 61 27 33 - - -
30/11:00am - - - - - NNW 46 54 25 29 - - -
30/10:30am - - - - - NNW 41 50 22 27 - - -
30/10:00am - - - - - N 41 48 22 26 - - -
30/09:30am - - - - - NNW 41 48 22 26 - - -
30/09:00am - - - - - N 32 39 17 21 - - -
30/08:30am - - - - - NNW 32 41 17 22 - - -
30/08:00am - - - - - NNW 33 41 18 22 - - -
30/07:30am - - - - - NNW 33 39 18 21 - - -
30/07:00am - - - - - NNW 28 33 15 18 - - -
30/06:30am - - - - - NW 26 30 14 16 - - -
30/06:00am - - - - - NW 22 30 12 16 - - -
30/05:30am - - - - - NNW 20 30 11 16 - - -
30/05:00am - - - - - NNW 17 20 9 11 - - -
30/04:30am - - - - - NW 13 15 7 8 - - -
30/04:00am - - - - - WNW 11 13 6 7 - - -
30/03:30am - - - - - WNW 13 15 7 8 - - -
30/03:00am - - - - - W 15 17 8 9 - - -
30/02:30am - - - - - W 15 17 8 9 - - -
30/02:00am - - - - - W 19 22 10 12 - - -
30/01:30am - - - - - WSW 22 24 12 13 - - -
30/01:00am - - - - - WNW 17 26 9 14 - - -
30/12:30am - - - - - N 32 35 17 19 - - -
30/12:00am - - - - - NNW 28 32 15 17 - - -
 
Date/Time
EST
Temp
°C
App
Temp
°C
Dew
Point
Rel
Hum
%
Delta-T
°C
Wind Press
QNH
hPa
Press
MSL
hPa
Rain
since 9 am
mm
Dir
 
Spd
km/h
Gust
km/h
Spd
kts
Gust
kts
29/11:30pm - - - - - NNW 32 35 17 19 - - -
29/11:00pm - - - - - NNW 32 35 17 19 - - -
29/10:30pm - - - - - N 33 39 18 21 - - -
29/10:00pm - - - - - N 32 35 17 19 - - -
29/09:30pm - - - - - N 33 39 18 21 - - -
29/09:00pm - - - - - N 39 43 21 23 - - -
29/08:30pm - - - - - N 33 39 18 21 - - -

Other Formats:

Comma delimited format used in spreadsheet applications
http://www.bom.gov.au/fwo/IDV60801/IDV60801.95872.axf

JavaScript Object Notation format (JSON) in row-major order
http://www.bom.gov.au/fwo/IDV60801/IDV60801.95872.json